Time;durP1;ratioP1;P1;durP2;ratioP2;P2;SDS_P1;SDS_P2;PMS_P1;PMS_P2;Temp;Humidity;BMP_temperature;BMP_pressure;BME280_temperature;BME280_humidity;BME280_pressure;Samples;Min_cycle;Max_cycle;Signal;HPM_P1;HPM_P2
2021/10/02 00:01:40;;;;;;;0.50;0.40;;;10.20;1.40;;;11.58;100.00;95474.28;647049;216;31501;-71
2021/10/02 00:02:04;;;;;;;0.50;0.40;;;10.10;1.40;;;11.45;100.00;95476.86;618806;226;31955;-71
2021/10/02 00:47:09;;;;;;;1.10;1.00;;;10.20;1.40;;;11.35;100.00;95473.97;645236;212;32241;-71
2021/10/02 00:49:52;;;;;;;1.30;0.43;;;10.10;1.40;;;11.37;100.00;95478.35;646424;212;31646;-71
2021/10/02 00:52:33;;;;;;;0.60;0.30;;;10.20;1.40;;;11.39;100.00;95477.27;618700;225;31855;-71
2021/10/02 00:55:15;;;;;;;0.70;0.60;;;10.20;1.40;;;11.33;100.00;95469.78;645733;216;31651;-71
2021/10/02 00:58:00;;;;;;;0.90;0.70;;;10.00;1.40;;;11.23;100.00;95473.28;647166;216;31619;-71
2021/10/02 01:00:42;;;;;;;1.10;0.30;;;9.80;1.40;;;11.11;100.00;95470.61;646823;212;31638;-71
2021/10/02 01:03:35;;;;;;;1.00;0.70;;;9.60;1.40;;;10.99;100.00;95471.45;646329;212;31918;-71
2021/10/02 01:06:43;;;;;;;0.50;0.30;;;9.40;1.40;;;10.95;100.00;95468.75;647269;216;31749;-72
2021/10/02 01:12:26;;;;;;;0.50;0.30;;;9.40;1.40;;;10.93;100.00;95459.24;646580;216;42100;-71
2021/10/02 01:15:12;;;;;;;0.40;0.30;;;9.70;1.40;;;11.10;100.00;95455.67;646029;212;31650;-72
2021/10/02 01:17:53;;;;;;;0.60;0.30;;;10.00;1.40;;;11.19;100.00;95456.45;646007;216;32058;-73
2021/10/02 01:20:55;;;;;;;0.80;0.80;;;10.00;1.40;;;11.19;100.00;95459.33;619320;222;31878;-71
2021/10/02 01:24:08;;;;;;;0.70;0.70;;;10.00;1.40;;;11.27;100.00;95458.77;645646;216;31478;-70
2021/10/02 01:27:18;;;;;;;0.60;0.60;;;10.20;1.40;;;11.35;100.00;95459.56;646739;216;32540;-72
2021/10/02 01:30:03;;;;;;;1.30;0.50;;;10.30;1.40;;;11.37;100.00;95459.25;646485;215;31498;-71
2021/10/02 01:32:49;;;;;;;0.70;0.30;;;10.30;1.40;;;11.34;100.00;95456.98;646863;212;42532;-71
2021/10/02 01:35:59;;;;;;;0.85;0.65;;;10.20;1.40;;;11.22;100.00;95451.22;645777;216;31712;-71
2021/10/02 01:49:46;;;;;;;0.40;0.40;;;9.80;1.40;;;11.06;100.00;95445.95;645422;212;32164;-71
2021/10/02 01:52:34;;;;;;;0.70;0.50;;;9.90;1.40;;;-143.44;100.00;122422.95;647146;216;31489;-72
2021/10/02 01:57:52;;;;;;;0.90;0.63;;;9.90;1.40;;;;;;645644;216;42540;-72
2021/10/02 02:00:37;;;;;;;0.60;0.50;;;9.80;1.40;;;;;;619608;226;31949;-71
2021/10/02 02:03:18;;;;;;;0.40;0.40;;;9.80;1.40;;;;;;646753;216;31522;-71
2021/10/02 02:06:02;;;;;;;0.80;0.30;;;9.90;1.40;;;;;;645544;212;31481;-71
2021/10/02 02:08:43;;;;;;;1.40;0.70;;;10.00;1.40;;;;;;647022;212;31601;-71
2021/10/02 02:11:24;;;;;;;0.50;0.50;;;10.10;1.40;;;;;;645596;216;31653;-71
2021/10/02 02:14:05;;;;;;;1.10;1.00;;;10.10;1.40;;;;;;646825;216;31495;-73
2021/10/02 02:19:20;;;;;;;1.00;0.40;;;10.10;1.40;;;;;;646628;212;31954;-72
2021/10/02 02:22:04;;;;;;;0.40;0.40;;;10.00;1.40;;;;;;645027;214;32126;-74
2021/10/02 02:24:45;;;;;;;0.80;0.40;;;10.00;1.40;;;;;;647327;216;31534;-71
2021/10/02 02:27:27;;;;;;;0.60;0.40;;;10.10;1.40;;;;;;646676;216;31494;-72
2021/10/02 02:30:08;;;;;;;1.10;1.00;;;10.10;1.40;;;;;;645325;216;31564;-71
2021/10/02 02:32:50;;;;;;;1.40;1.30;;;10.00;1.40;;;;;;619434;222;31901;-72
2021/10/02 02:35:54;;;;;;;0.80;0.80;;;9.80;1.40;;;11.00;100.00;95434.75;645941;216;31508;-71
2021/10/02 02:38:36;;;;;;;0.70;0.70;;;9.70;1.40;;;11.08;100.00;95429.22;647555;213;31502;-71
2021/10/02 02:41:18;;;;;;;0.80;0.80;;;9.80;1.40;;;11.22;100.00;95438.27;641549;212;34053;-71
2021/10/02 02:44:02;;;;;;;0.80;0.53;;;9.90;1.40;;;11.31;100.00;95437.34;645698;212;31541;-71
2021/10/02 02:46:44;;;;;;;0.70;0.70;;;10.00;1.40;;;11.26;100.00;95427.09;646705;216;31581;-70
2021/10/02 02:49:51;;;;;;;0.60;0.40;;;10.10;1.40;;;11.39;100.00;95439.00;646214;216;31527;-70
2021/10/02 02:52:38;;;;;;;0.60;0.60;;;10.10;1.40;;;11.51;100.00;95438.59;646491;216;32168;-70
2021/10/02 02:55:22;;;;;;;0.70;0.70;;;10.20;1.40;;;11.45;100.00;95442.27;646974;212;31479;-74
2021/10/02 02:58:05;;;;;;;0.60;0.57;;;10.00;1.40;;;11.39;100.00;95445.02;647025;216;42494;-73
2021/10/02 03:03:33;;;;;;;0.90;0.90;;;9.70;1.40;;;11.12;100.00;95440.03;646953;216;42247;-71
2021/10/02 03:06:15;;;;;;;0.60;0.60;;;9.70;1.40;;;11.04;100.00;95436.33;646368;216;31607;-70
2021/10/02 03:08:57;;;;;;;0.40;0.32;;;9.70;1.40;;;11.17;100.00;95434.86;647153;216;32049;-71
2021/10/02 03:11:38;;;;;;;0.60;0.50;;;9.90;1.40;;;11.24;100.00;95436.25;645561;212;42698;-71
2021/10/02 03:14:23;;;;;;;0.60;0.50;;;10.00;1.40;;;11.27;100.00;95434.44;645383;216;42110;-71
2021/10/02 03:17:05;;;;;;;0.50;0.50;;;10.20;1.40;;;11.31;100.00;95435.38;646917;212;42129;-71
2021/10/02 03:19:47;;;;;;;0.50;0.40;;;10.10;1.40;;;11.30;100.00;95430.29;646269;212;31544;-71
2021/10/02 03:22:28;;;;;;;0.80;0.40;;;10.20;1.40;;;11.30;100.00;95434.09;646425;216;31550;-71
2021/10/02 03:25:10;;;;;;;0.60;0.43;;;10.10;1.40;;;11.27;100.00;95433.08;646938;216;42125;-71
2021/10/02 03:27:55;;;;;;;0.60;0.40;;;10.10;1.40;;;11.26;100.00;95432.68;647196;216;42129;-71
2021/10/02 03:30:36;;;;;;;0.40;0.20;;;10.10;1.40;;;11.24;100.00;95434.58;644718;216;42146;-73
2021/10/02 03:35:51;;;;;;;0.50;0.50;;;10.10;1.40;;;11.22;100.00;95429.89;647258;216;32057;-71
2021/10/02 03:38:33;;;;;;;0.60;0.60;;;10.10;1.40;;;11.23;100.00;95427.16;646612;212;42432;-71
2021/10/02 03:41:14;;;;;;;1.00;0.77;;;10.10;1.40;;;11.23;100.00;95428.08;643016;212;31821;-72
2021/10/02 03:43:56;;;;;;;1.60;0.70;;;10.10;1.40;;;11.22;100.00;95425.50;645903;216;42295;-74
2021/10/02 03:46:38;;;;;;;0.77;0.60;;;10.10;1.40;;;11.21;100.00;95426.17;646122;216;31602;-71
2021/10/02 03:49:20;;;;;;;1.70;0.77;;;10.00;1.40;;;11.20;100.00;95428.65;647364;216;31883;-71
2021/10/02 03:52:01;;;;;;;0.40;0.35;;;9.90;1.40;;;11.27;100.00;95435.43;645767;212;31747;-72
2021/10/02 03:54:46;;;;;;;1.10;0.67;;;10.10;1.40;;;11.33;100.00;95435.61;647035;212;32121;-72
2021/10/02 03:57:28;;;;;;;0.80;0.80;;;10.10;1.40;;;11.26;100.00;95432.41;620373;226;31869;-72
2021/10/02 04:00:10;;;;;;;0.60;0.50;;;10.00;1.40;;;11.27;100.00;95432.06;619078;222;42912;-72
2021/10/02 04:02:52;;;;;;;0.90;0.90;;;10.10;1.40;;;11.29;100.00;95426.14;646239;216;42228;-70
2021/10/02 04:05:33;;;;;;;5.20;1.23;;;10.20;1.40;;;11.33;100.00;95427.30;647484;216;42740;-72
2021/10/02 04:08:18;;;;;;;0.87;0.80;;;10.20;1.40;;;11.37;100.00;95428.84;647924;216;42127;-71
2021/10/02 04:11:03;;;;;;;0.40;0.30;;;10.10;1.40;;;11.36;100.00;95433.48;645709;216;42134;-71
2021/10/02 04:13:41;;;;;;;0.60;0.37;;;10.10;1.40;;;11.36;100.00;95433.16;631188;221;42220;-71
2021/10/02 04:16:23;;;;;;;0.70;0.60;;;10.20;1.40;;;11.38;100.00;95434.24;646358;212;31529;-71
2021/10/02 04:19:10;;;;;;;0.60;0.40;;;10.20;1.40;;;11.42;100.00;95431.98;648442;216;31572;-72
2021/10/02 04:21:51;;;;;;;0.70;0.70;;;10.30;1.40;;;11.47;100.00;95430.13;646840;216;42208;-71
2021/10/02 04:24:33;;;;;;;0.40;0.40;;;10.30;1.40;;;11.46;100.00;95428.47;646886;216;31640;-72
2021/10/02 04:27:15;;;;;;;0.80;0.70;;;10.40;1.40;;;11.45;100.00;95420.44;646945;212;31695;-72
2021/10/02 04:29:56;;;;;;;0.60;0.60;;;10.30;1.40;;;11.47;100.00;95424.42;645811;212;31475;-71
2021/10/02 04:32:41;;;;;;;6.40;1.80;;;10.20;1.40;;;11.39;100.00;95420.22;647126;216;42136;-72
2021/10/02 04:35:51;;;;;;;1.58;1.48;;;10.20;1.40;;;11.35;100.00;95424.45;646804;216;42154;-72
2021/10/02 04:38:33;;;;;;;0.60;0.40;;;10.10;1.40;;;11.37;100.00;95421.41;646691;216;31841;-73
2021/10/02 04:41:14;;;;;;;0.70;0.60;;;10.10;1.40;;;11.39;100.00;95428.25;641970;216;36722;-72
2021/10/02 04:43:56;;;;;;;0.50;0.37;;;10.20;1.40;;;11.37;100.00;95427.59;646667;212;31501;-72
2021/10/02 04:46:38;;;;;;;0.80;0.30;;;10.30;1.40;;;11.43;100.00;95429.08;646857;216;42139;-73
2021/10/02 04:51:54;;;;;;;1.60;1.50;;;10.30;1.40;;;11.49;100.00;95428.06;646571;216;31585;-72
2021/10/02 04:54:35;;;;;;;0.40;0.40;;;10.30;1.40;;;11.56;100.00;95426.13;646712;216;31380;-72
2021/10/02 04:57:17;;;;;;;0.40;0.30;;;10.20;1.40;;;11.49;100.00;95427.41;648068;216;31823;-71
2021/10/02 05:00:02;;;;;;;0.40;0.20;;;10.20;1.40;;;11.46;100.00;95424.11;644925;212;31650;-72
2021/10/02 05:02:43;;;;;;;0.40;0.30;;;10.20;1.40;;;11.39;100.00;95425.92;645767;216;42205;-72
2021/10/02 05:05:25;;;;;;;2.20;1.20;;;10.20;1.40;;;11.42;100.00;95429.33;646506;212;42231;-71
2021/10/02 05:08:07;;;;;;;0.50;0.40;;;10.20;1.40;;;11.41;100.00;95431.09;646257;216;42286;-71
2021/10/02 05:10:49;;;;;;;0.53;0.53;;;10.30;1.40;;;11.48;100.00;95433.62;618165;226;31993;-74
2021/10/02 05:13:34;;;;;;;0.80;0.53;;;10.40;1.40;;;11.53;100.00;95438.88;646872;212;42155;-72
2021/10/02 05:16:15;;;;;;;1.00;0.80;;;10.40;1.40;;;11.52;100.00;95434.06;646917;216;42152;-72
2021/10/02 05:18:56;;;;;;;0.80;0.80;;;10.40;1.40;;;11.64;100.00;95439.14;647018;212;42387;-72
2021/10/02 05:21:38;;;;;;;0.98;0.88;;;10.60;1.40;;;11.74;100.00;95437.72;618494;222;31821;-72
2021/10/02 05:24:20;;;;;;;0.73;0.73;;;10.60;1.40;;;11.78;100.00;95442.52;648102;216;31530;-72
2021/10/02 05:27:03;;;;;;;0.80;0.60;;;10.50;1.40;;;11.76;100.00;95442.17;645288;216;31650;-71
2021/10/02 05:29:45;;;;;;;0.40;0.40;;;10.50;1.40;;;11.74;100.00;95444.17;646896;216;42436;-73
2021/10/02 05:32:26;;;;;;;0.97;0.70;;;10.50;1.40;;;11.64;100.00;95443.80;646477;212;42154;-72
2021/10/02 05:35:53;;;;;;;0.50;0.50;;;10.50;1.40;;;11.73;100.00;95448.73;645973;212;31909;-73
2021/10/02 05:38:33;;;;;;;1.10;0.90;;;10.50;1.40;;;11.74;100.00;95446.64;642427;215;31531;-71
2021/10/02 05:41:15;;;;;;;0.73;0.60;;;10.60;1.40;;;11.91;100.00;95451.06;642680;216;31693;-72
2021/10/02 05:43:57;;;;;;;1.20;0.90;;;10.70;1.40;;;11.95;100.00;95454.05;619651;222;31986;-71
2021/10/02 05:46:38;;;;;;;0.60;0.60;;;10.80;1.40;;;12.01;100.00;95454.17;619454;226;31864;-72
2021/10/02 05:49:20;;;;;;;0.90;0.50;;;10.90;1.40;;;12.05;100.00;95458.98;619898;226;42484;-70
2021/10/02 05:52:02;;;;;;;0.40;0.30;;;10.90;1.40;;;12.06;100.00;95461.64;646333;216;42277;-71
2021/10/02 05:54:47;;;;;;;0.80;0.67;;;11.00;1.40;;;12.12;100.00;95467.14;618955;222;32019;-71
2021/10/02 05:57:28;;;;;;;0.90;0.80;;;11.10;1.40;;;12.14;100.00;95465.14;647185;212;31523;-72
2021/10/02 06:00:11;;;;;;;0.70;0.70;;;11.10;1.40;;;12.20;100.00;95463.23;647217;216;31471;-71
2021/10/02 06:02:56;;;;;;;0.90;0.70;;;11.10;1.40;;;12.27;100.00;95458.43;646258;216;31521;-72
2021/10/02 06:05:35;;;;;;;0.77;0.70;;;11.20;1.40;;;12.41;100.00;95455.96;619332;222;31839;-71
2021/10/02 06:08:16;;;;;;;0.83;0.73;;;11.30;1.40;;;12.51;100.00;95450.87;647636;216;31529;-72
2021/10/02 06:11:01;;;;;;;1.07;0.70;;;11.40;1.40;;;12.70;100.00;95451.53;646303;214;31505;-71
2021/10/02 06:13:43;;;;;;;1.70;0.80;;;11.60;1.40;;;12.87;100.00;95447.99;645291;216;31560;-71
2021/10/02 06:16:24;;;;;;;0.80;0.60;;;11.80;1.40;;;13.03;100.00;95452.42;619858;222;31828;-70
2021/10/02 06:19:06;;;;;;;0.80;0.70;;;11.90;1.40;;;13.10;100.00;95457.10;618920;225;31799;-71
2021/10/02 06:21:48;;;;;;;0.57;0.55;;;12.00;1.40;;;13.22;100.00;95460.23;645452;216;42835;-71
2021/10/02 06:24:30;;;;;;;0.70;0.50;;;12.20;1.40;;;13.28;100.00;95460.61;646182;212;32686;-71
2021/10/02 06:27:11;;;;;;;0.90;0.90;;;12.20;1.40;;;13.38;100.00;95458.86;646627;216;31716;-70
2021/10/02 06:29:53;;;;;;;1.52;0.93;;;12.30;1.40;;;13.51;100.00;95464.30;646013;216;35055;-71
2021/10/02 06:32:35;;;;;;;1.60;1.00;;;12.30;1.40;;;13.61;100.00;95472.30;646537;216;31633;-72
2021/10/02 06:35:51;;;;;;;1.27;0.73;;;12.40;1.40;;;13.65;100.00;95466.82;645950;212;31831;-72
2021/10/02 06:38:33;;;;;;;0.50;0.40;;;12.40;1.40;;;13.68;100.00;95466.44;646576;212;35181;-71
2021/10/02 06:41:15;;;;;;;0.90;0.70;;;12.40;1.40;;;13.87;100.00;95466.84;646782;216;31461;-71
2021/10/02 06:43:56;;;;;;;0.50;0.40;;;12.50;1.40;;;13.83;100.00;95466.06;646399;212;39048;-70
2021/10/02 06:46:38;;;;;;;0.82;0.62;;;12.50;1.40;;;13.94;100.00;95460.83;645583;212;31491;-70
2021/10/02 06:49:23;;;;;;;0.80;0.70;;;12.60;1.40;;;13.98;100.00;95458.86;646943;216;41551;-71
2021/10/02 06:52:01;;;;;;;1.20;1.00;;;12.70;1.40;;;14.47;100.00;95464.23;619959;222;44189;-71
2021/10/02 06:54:43;;;;;;;0.80;0.70;;;12.80;1.40;;;14.90;100.00;95462.33;646553;212;31931;-70
2021/10/02 06:57:25;;;;;;;1.17;0.85;;;13.00;1.40;;;14.55;100.00;95458.61;619256;226;31851;-70
2021/10/02 07:00:08;;;;;;;0.95;0.85;;;13.00;1.40;;;14.42;100.00;95469.19;647267;216;42129;-71
2021/10/02 07:05:24;;;;;;;1.20;1.10;;;13.10;1.40;;;14.54;100.00;95470.97;646290;216;31469;-72
2021/10/02 07:08:08;;;;;;;0.90;0.70;;;13.20;1.40;;;14.44;100.00;95471.28;646822;212;31522;-70
2021/10/02 07:10:50;;;;;;;2.30;0.60;;;13.30;1.40;;;14.61;100.00;95468.91;645595;216;31404;-70
2021/10/02 07:13:32;;;;;;;1.17;0.88;;;13.40;1.40;;;14.81;100.00;95467.66;618567;226;31868;-71
2021/10/02 07:16:14;;;;;;;2.00;1.45;;;13.50;1.40;;;14.76;100.00;95468.77;644897;213;31500;-71
2021/10/02 07:18:58;;;;;;;1.10;0.70;;;13.50;1.40;;;15.06;100.00;95466.83;645585;216;31557;-71
2021/10/02 07:21:46;;;;;;;1.30;0.75;;;13.70;1.40;;;14.98;100.00;95466.31;647294;212;31492;-73
2021/10/02 07:27:14;;;;;;;1.20;1.05;;;13.90;1.40;;;15.20;100.00;95460.67;647103;212;32132;-72
2021/10/02 07:30:01;;;;;;;0.80;0.50;;;14.00;1.40;;;15.29;100.00;95460.83;647185;216;31501;-73
2021/10/02 07:32:43;;;;;;;1.52;0.95;;;14.10;1.40;;;15.21;100.00;95458.14;645690;212;31475;-72
2021/10/02 07:35:54;;;;;;;1.45;1.02;;;14.10;1.40;;;15.40;100.00;95447.05;645585;216;32054;-71
2021/10/02 07:38:36;;;;;;;1.10;0.80;;;14.20;1.40;;;15.52;100.00;95443.11;646217;216;32215;-71
2021/10/02 07:41:21;;;;;;;1.80;1.30;;;14.40;1.40;;;15.77;100.00;95440.31;646100;212;31453;-70
2021/10/02 07:44:03;;;;;;;1.45;0.88;;;14.70;1.40;;;15.95;100.00;95443.71;646686;212;31484;-71
2021/10/02 07:52:04;;;;;;;1.35;1.15;;;15.10;1.40;;;16.36;100.00;95453.44;646569;212;31506;-71
2021/10/02 07:54:52;;;;;;;0.93;0.82;;;15.30;1.40;;;16.59;100.00;95454.86;646571;216;31504;-73
2021/10/02 07:57:40;;;;;;;1.08;0.98;;;15.60;1.40;;;16.95;100.00;95451.00;646851;216;31649;-70
2021/10/02 08:00:21;;;;;;;1.70;1.30;;;15.90;1.40;;;17.16;100.00;95452.39;646476;212;31615;-71
2021/10/02 08:03:06;;;;;;;1.70;1.10;;;16.10;1.40;;;17.28;100.00;95451.11;646166;216;31531;-72
2021/10/02 08:05:48;;;;;;;2.28;1.27;;;16.20;1.40;;;17.58;100.00;95456.88;647397;216;31560;-72
2021/10/02 08:08:29;;;;;;;1.73;1.30;;;16.50;1.40;;;17.56;100.00;95461.11;646766;214;31546;-72
2021/10/02 08:11:14;;;;;;;2.03;1.30;;;16.40;1.40;;;17.63;100.00;95460.52;644940;212;31489;-71
2021/10/02 08:14:04;;;;;;;2.78;1.17;;;16.60;1.40;;;17.86;100.00;95449.47;646539;216;31587;-72
2021/10/02 08:16:49;;;;;;;1.92;1.40;;;16.80;1.40;;;17.82;100.00;95448.03;646257;216;31856;-71
2021/10/02 08:19:37;;;;;;;2.08;1.00;;;16.70;1.40;;;17.75;100.00;95441.13;645825;216;31574;-72
2021/10/02 08:22:19;;;;;;;1.45;1.20;;;16.60;1.40;;;17.69;98.75;95439.62;647420;212;31487;-72
2021/10/02 08:25:02;;;;;;;1.77;1.20;;;16.60;1.40;;;17.88;98.25;95436.39;646403;216;33360;-71
2021/10/02 08:27:44;;;;;;;2.20;1.20;;;16.90;1.40;;;18.29;97.93;95436.42;647477;213;32058;-72
2021/10/02 08:30:26;;;;;;;2.20;1.10;;;17.30;1.40;;;18.53;94.32;95434.70;619219;222;31867;-71
2021/10/02 08:35:51;;;;;;;1.52;1.23;;;17.80;1.40;;;18.68;87.77;95438.48;618705;225;31951;-71
2021/10/02 08:38:38;;;;;;;2.20;1.30;;;17.80;1.40;;;18.85;85.47;95432.16;646510;216;31513;-71
2021/10/02 08:41:26;;;;;;;2.83;1.90;;;17.90;1.40;;;19.06;86.49;95423.95;641895;216;31665;-71
2021/10/02 08:44:08;;;;;;;1.48;1.37;;;18.00;1.40;;;19.30;84.86;95420.10;646496;212;42778;-72
2021/10/02 08:46:49;;;;;;;2.62;1.95;;;18.30;1.40;;;19.94;80.69;95415.09;618715;226;32170;-71
2021/10/02 08:49:35;;;;;;;2.15;1.55;;;18.90;1.40;;;21.35;72.27;95415.84;647406;212;32048;-71
2021/10/02 08:52:16;;;;;;;1.70;1.12;;;22.20;1.40;;;22.89;63.09;95411.70;647780;216;32149;-71
2021/10/02 08:54:58;;;;;;;2.40;1.50;;;23.40;1.40;;;23.90;60.12;95401.34;646294;214;42175;-71
2021/10/02 08:57:40;;;;;;;2.42;0.90;;;24.40;1.40;;;25.59;58.17;95401.20;646130;212;42983;-71
2021/10/02 09:00:21;;;;;;;3.33;1.40;;;25.70;1.40;;;25.93;53.37;95405.45;646999;216;31739;-72
2021/10/02 09:03:03;;;;;;;1.70;1.30;;;25.30;1.40;;;26.10;49.61;95403.80;646166;212;31783;-72
2021/10/02 09:05:44;;;;;;;1.90;1.40;;;25.20;1.40;;;28.34;46.54;95401.31;645133;212;31626;-71
2021/10/02 09:08:26;;;;;;;1.87;1.30;;;27.00;1.40;;;27.93;50.21;95406.80;648289;212;31536;-72
2021/10/02 09:11:08;;;;;;;2.62;1.50;;;26.70;1.40;;;27.43;43.86;95410.70;646703;212;32127;-72
2021/10/02 09:13:55;;;;;;;1.40;1.00;;;24.70;1.40;;;25.70;49.75;95410.75;646120;216;31564;-72
2021/10/02 09:16:43;;;;;;;3.70;1.10;;;23.10;1.40;;;28.94;53.90;95402.89;646818;216;32038;-72
2021/10/02 09:19:25;;;;;;;1.30;0.90;;;26.00;1.40;;;26.46;44.50;95405.64;647040;216;31505;-72
2021/10/02 09:22:07;;;;;;;1.35;0.98;;;23.60;1.40;;;25.89;47.88;95406.59;645719;212;31536;-71
2021/10/02 09:24:50;;;;;;;1.40;1.10;;;23.10;1.40;;;25.14;46.01;95406.38;647025;216;31693;-72
2021/10/02 09:27:32;;;;;;;0.80;0.80;;;22.80;1.40;;;25.59;46.34;95399.01;618953;226;32286;-71
2021/10/02 09:30:14;;;;;;;2.37;1.70;;;24.60;1.40;;;25.37;47.52;95399.33;647795;212;32380;-71
2021/10/02 09:35:51;;;;;;;1.20;0.90;;;23.60;1.40;;;25.44;47.39;95390.41;646219;212;32491;-71
2021/10/02 09:38:39;;;;;;;1.25;1.00;;;22.60;1.40;;;26.31;46.68;95387.77;618735;226;31799;-74
2021/10/02 09:41:20;;;;;;;1.40;1.00;;;24.10;1.40;;;26.61;43.91;95380.75;641407;212;31643;-72
2021/10/02 09:44:08;;;;;;;1.30;1.20;;;25.10;1.40;;;26.09;45.21;95384.48;646243;216;31646;-72
2021/10/02 09:46:50;;;;;;;1.15;1.05;;;23.20;1.40;;;25.41;44.07;95385.22;646345;212;31933;-72
2021/10/02 09:49:40;;;;;;;1.20;1.10;;;23.10;1.40;;;26.78;44.06;95378.55;646758;216;31795;-71
2021/10/02 09:52:37;;;;;;;1.17;0.90;;;24.70;1.40;;;28.03;44.19;95380.38;645502;212;31584;-72
2021/10/02 09:55:22;;;;;;;1.08;0.70;;;25.50;1.40;;;28.92;42.04;95378.52;646336;213;31644;-72
2021/10/02 09:58:05;;;;;;;1.20;1.02;;;26.10;1.40;;;29.41;42.88;95378.52;618808;222;31893;-72
2021/10/02 10:00:46;;;;;;;1.90;1.00;;;26.20;1.40;;;30.95;41.43;95374.80;646153;216;31881;-72
2021/10/02 10:03:28;;;;;;;1.60;1.00;;;27.60;1.40;;;31.75;36.24;95368.41;642771;219;31649;-72
2021/10/02 10:06:23;;;;;;;1.23;0.80;;;29.10;1.40;;;29.61;38.10;95380.94;619603;222;32478;-71
2021/10/02 10:09:14;;;;;;;1.40;0.98;;;26.50;1.40;;;27.10;40.68;95376.92;645372;216;40026;-72
2021/10/02 10:11:58;;;;;;;1.20;0.98;;;24.90;1.40;;;28.82;38.89;95373.16;646891;216;31776;-72
2021/10/02 10:14:45;;;;;;;1.50;1.00;;;25.60;1.40;;;29.03;37.63;95369.73;646287;216;31599;-72
2021/10/02 10:17:33;;;;;;;1.00;0.80;;;26.20;1.40;;;30.80;38.43;95368.83;646857;216;31728;-72
2021/10/02 10:20:15;;;;;;;1.27;1.10;;;28.60;1.40;;;32.14;37.92;95365.43;619591;222;32046;-72
2021/10/02 10:22:57;;;;;;;1.62;1.10;;;29.80;1.40;;;30.60;35.67;95369.13;645450;216;31487;-73
2021/10/02 10:25:52;;;;;;;1.70;1.00;;;27.70;1.40;;;28.99;40.14;95366.59;649393;216;31698;-72
2021/10/02 10:28:39;;;;;;;1.55;1.12;;;26.40;1.40;;;28.22;39.48;95357.22;619883;222;43029;-72
2021/10/02 10:31:25;;;;;;;3.90;1.20;;;26.60;1.40;;;28.98;39.09;95360.74;646106;212;31773;-72
2021/10/02 10:35:56;;;;;;;1.20;0.90;;;27.10;1.40;;;29.88;35.60;95362.62;647570;212;31586;-72
2021/10/02 10:38:39;;;;;;;1.00;0.90;;;27.40;1.40;;;29.75;36.05;95353.97;645869;216;31493;-73
2021/10/02 10:41:28;;;;;;;1.00;0.80;;;27.10;1.40;;;29.44;36.50;95346.89;641287;216;31932;-71
2021/10/02 10:44:08;;;;;;;1.90;1.10;;;26.90;1.40;;;29.36;38.47;95346.34;619033;226;31856;-73
2021/10/02 10:46:49;;;;;;;2.22;1.10;;;26.60;1.40;;;30.69;34.93;95344.68;647029;212;31503;-71
2021/10/02 10:49:37;;;;;;;1.10;1.00;;;28.30;1.40;;;29.88;35.61;95346.36;646854;212;31714;-72
2021/10/02 10:52:20;;;;;;;1.02;0.90;;;27.50;1.40;;;31.55;33.20;95332.07;618233;226;38256;-73
2021/10/02 10:55:02;;;;;;;1.20;1.10;;;29.00;1.40;;;31.96;34.28;95331.36;630756;222;31804;-71
2021/10/02 10:57:47;;;;;;;1.35;0.95;;;29.30;1.40;;;31.50;33.45;95323.12;646561;216;31704;-73
2021/10/02 11:00:46;;;;;;;1.20;1.10;;;28.70;1.40;;;32.33;32.93;95316.73;646900;212;31642;-73
2021/10/02 11:03:40;;;;;;;1.10;1.00;;;28.20;1.40;;;29.77;36.15;95316.23;647268;212;31601;-72
2021/10/02 11:06:22;;;;;;;1.33;1.23;;;26.80;1.40;;;31.69;34.42;95305.13;646772;212;31785;-72
2021/10/02 11:09:05;;;;;;;1.50;1.20;;;28.30;1.40;;;30.70;34.69;95307.53;645149;216;31588;-72
2021/10/02 11:15:02;;;;;;;1.90;1.30;;;26.50;1.40;;;30.46;34.99;95301.93;646005;216;31897;-75
2021/10/02 11:17:44;;;;;;;1.20;1.10;;;28.00;1.40;;;31.15;33.50;95300.14;646551;212;31656;-72
2021/10/02 11:20:33;;;;;;;1.60;1.20;;;28.30;1.40;;;33.74;33.32;95292.91;646669;216;31698;-72
2021/10/02 11:23:57;;;;;;;1.75;1.23;;;29.50;1.40;;;34.79;30.24;95287.42;646954;216;31634;-73
2021/10/02 11:29:27;;;;;;;1.70;1.40;;;29.30;1.40;;;34.65;32.30;95281.80;643138;216;31885;-73
2021/10/02 11:32:22;;;;;;;1.50;1.20;;;30.10;1.40;;;35.42;29.20;95276.66;645764;216;32299;-73
2021/10/02 11:35:53;;;;;;;1.33;1.23;;;30.50;1.40;;;35.00;27.42;95277.71;646496;212;31497;-73
2021/10/02 11:38:36;;;;;;;1.25;1.00;;;30.30;1.40;;;33.91;27.49;95272.41;647532;216;31672;-73
2021/10/02 11:41:22;;;;;;;1.00;0.90;;;29.60;1.40;;;34.47;28.49;95266.41;640299;212;33111;-72
2021/10/02 11:44:03;;;;;;;1.48;1.00;;;29.40;1.40;;;35.50;28.60;95260.49;646667;216;31524;-72
2021/10/02 11:46:45;;;;;;;2.35;1.17;;;30.10;1.40;;;38.38;25.39;95253.53;647132;216;31739;-72
2021/10/02 11:52:10;;;;;;;1.20;1.10;;;28.00;1.40;;;32.75;30.09;95249.41;619870;226;31872;-72
2021/10/02 11:54:52;;;;;;;2.40;1.20;;;29.10;1.40;;;32.77;28.91;95243.75;647782;212;32102;-72
2021/10/02 11:57:33;;;;;;;1.10;1.00;;;29.10;1.40;;;36.90;27.38;95232.92;645847;216;31576;-72
2021/10/02 12:00:18;;;;;;;1.37;1.05;;;30.80;1.40;;;39.94;24.70;95225.48;646856;212;31788;-74
2021/10/02 12:03:00;;;;;;;1.50;1.20;;;30.90;1.40;;;39.64;25.08;95234.81;647160;216;31775;-72
2021/10/02 12:05:42;;;;;;;2.00;1.17;;;31.30;1.40;;;40.27;24.02;95225.23;645826;212;31552;-72
2021/10/02 12:11:02;;;;;;;1.10;1.00;;;29.30;1.40;;;32.60;30.94;95227.86;646081;216;31671;-72
2021/10/02 12:13:49;;;;;;;1.52;1.17;;;28.40;1.40;;;33.90;29.45;95224.16;645893;212;31499;-73
2021/10/02 12:16:28;;;;;;;1.23;1.00;;;29.60;1.40;;;35.13;28.01;95215.42;631989;222;31643;-72
2021/10/02 12:19:10;;;;;;;1.65;1.37;;;30.20;1.40;;;34.19;28.34;95221.92;647204;212;31765;-72
2021/10/02 12:21:55;;;;;;;1.40;1.00;;;29.90;1.40;;;31.66;29.93;95224.00;646136;212;31594;-72
2021/10/02 12:24:34;;;;;;;1.90;1.00;;;28.80;1.40;;;32.54;30.44;95220.16;646350;216;31564;-72
2021/10/02 12:27:22;;;;;;;1.27;0.90;;;28.80;1.40;;;33.68;28.20;95215.48;646138;216;31656;-73
2021/10/02 12:30:10;;;;;;;1.15;0.90;;;29.50;1.40;;;33.51;27.88;95206.61;645368;216;31534;-72
2021/10/02 12:32:57;;;;;;;0.93;0.90;;;29.10;1.40;;;36.87;26.51;95192.28;647046;212;42314;-72
2021/10/02 12:35:51;;;;;;;1.50;1.10;;;30.50;1.40;;;37.64;26.44;95182.91;646959;216;31507;-72
2021/10/02 12:38:41;;;;;;;1.30;1.02;;;31.00;1.40;;;37.91;24.87;95181.04;647508;216;31498;-73
2021/10/02 12:41:22;;;;;;;1.50;1.30;;;31.20;1.40;;;34.35;27.86;95184.92;642262;216;31681;-73
2021/10/02 12:46:38;;;;;;;1.70;0.90;;;28.60;1.40;;;30.97;29.68;95178.53;646935;212;31519;-71
2021/10/02 12:49:20;;;;;;;1.60;1.17;;;27.70;1.40;;;32.38;29.04;95169.62;646992;216;31568;-72
2021/10/02 12:52:05;;;;;;;1.20;1.00;;;28.70;1.40;;;31.72;29.65;95162.92;646243;212;32051;-72
2021/10/02 12:54:47;;;;;;;1.00;0.88;;;28.90;1.40;;;32.49;29.34;95162.28;619340;226;31862;-72
2021/10/02 12:57:34;;;;;;;1.40;1.10;;;28.80;1.40;;;32.08;29.57;95156.49;646464;212;42215;-72
2021/10/02 13:00:20;;;;;;;1.25;1.08;;;28.70;1.40;;;31.20;31.22;95155.77;644523;216;31641;-73
2021/10/02 13:03:10;;;;;;;1.00;0.70;;;28.40;1.40;;;31.29;31.03;95146.08;647169;216;42175;-72
2021/10/02 13:05:50;;;;;;;1.10;1.00;;;28.80;1.40;;;30.73;32.19;95147.53;645362;212;31600;-72
2021/10/02 13:08:31;;;;;;;1.17;1.08;;;28.00;1.40;;;31.31;31.42;95139.91;646987;212;31656;-71
2021/10/02 13:11:16;;;;;;;0.93;0.82;;;28.80;1.40;;;32.15;29.12;95140.92;646863;216;31656;-72
2021/10/02 13:13:58;;;;;;;1.40;0.90;;;29.10;1.40;;;33.99;30.04;95142.55;645868;216;31559;-71
2021/10/02 13:16:47;;;;;;;1.43;1.33;;;29.50;1.40;;;31.29;31.40;95135.27;644841;216;31652;-72
2021/10/02 13:19:29;;;;;;;1.37;1.27;;;28.30;1.40;;;30.62;33.51;95132.19;647557;216;31706;-72
2021/10/02 13:22:18;;;;;;;5.22;2.30;;;27.70;1.40;;;29.16;34.71;95136.64;645817;216;31651;-72